sensor_id;sensor_type;location;lat;lon;timestamp;temperature;humidity
13229;DHT22;6680;53.220;10.402;2022-08-03T00:00:54;21.30;99.90
13229;DHT22;6680;53.220;10.402;2022-08-03T00:03:21;21.20;99.90
13229;DHT22;6680;53.220;10.402;2022-08-03T00:05:48;21.20;99.90
13229;DHT22;6680;53.220;10.402;2022-08-03T00:08:14;21.20;99.90
13229;DHT22;6680;53.220;10.402;2022-08-03T00:10:41;21.20;99.90
13229;DHT22;6680;53.220;10.402;2022-08-03T00:13:08;21.20;99.90
13229;DHT22;6680;53.220;10.402;2022-08-03T00:15:37;21.20;99.90
13229;DHT22;6680;53.220;10.402;2022-08-03T00:18:05;21.20;99.90
13229;DHT22;6680;53.220;10.402;2022-08-03T00:20:32;21.20;99.90
13229;DHT22;6680;53.220;10.402;2022-08-03T00:22:59;21.20;99.90
13229;DHT22;6680;53.220;10.402;2022-08-03T00:25:26;21.20;99.90
13229;DHT22;6680;53.220;10.402;2022-08-03T00:27:52;21.20;99.90
13229;DHT22;6680;53.220;10.402;2022-08-03T00:30:19;21.20;99.90
13229;DHT22;6680;53.220;10.402;2022-08-03T00:32:46;21.20;99.90
13229;DHT22;6680;53.220;10.402;2022-08-03T00:35:14;21.20;99.90
13229;DHT22;6680;53.220;10.402;2022-08-03T00:37:41;21.20;99.90
13229;DHT22;6680;53.220;10.402;2022-08-03T00:40:10;21.10;99.90
13229;DHT22;6680;53.220;10.402;2022-08-03T00:42:46;21.10;99.90
13229;DHT22;6680;53.220;10.402;2022-08-03T00:45:12;21.10;99.90
13229;DHT22;6680;53.220;10.402;2022-08-03T00:47:39;21.00;99.90
13229;DHT22;6680;53.220;10.402;2022-08-03T00:50:06;21.00;99.90
13229;DHT22;6680;53.220;10.402;2022-08-03T00:52:35;21.00;99.90
13229;DHT22;6680;53.220;10.402;2022-08-03T00:55:02;20.90;99.90
13229;DHT22;6680;53.220;10.402;2022-08-03T00:57:29;20.80;99.90
13229;DHT22;6680;53.220;10.402;2022-08-03T00:59:57;20.70;99.90
13229;DHT22;6680;53.220;10.402;2022-08-03T01:02:25;20.60;99.90
13229;DHT22;6680;53.220;10.402;2022-08-03T01:04:52;20.50;99.90
13229;DHT22;6680;53.220;10.402;2022-08-03T01:07:25;20.40;99.90
13229;DHT22;6680;53.220;10.402;2022-08-03T01:09:59;20.30;99.90
13229;DHT22;6680;53.220;10.402;2022-08-03T01:12:31;20.20;99.90
13229;DHT22;6680;53.220;10.402;2022-08-03T01:15:07;20.10;99.90
13229;DHT22;6680;53.220;10.402;2022-08-03T01:17:39;20.00;99.90
13229;DHT22;6680;53.220;10.402;2022-08-03T01:20:10;19.90;99.90
13229;DHT22;6680;53.220;10.402;2022-08-03T01:22:56;19.80;99.90
13229;DHT22;6680;53.220;10.402;2022-08-03T01:25:37;19.70;99.90
13229;DHT22;6680;53.220;10.402;2022-08-03T01:28:18;19.60;99.90
13229;DHT22;6680;53.220;10.402;2022-08-03T01:30:52;19.50;99.90
13229;DHT22;6680;53.220;10.402;2022-08-03T01:33:23;19.40;99.90
13229;DHT22;6680;53.220;10.402;2022-08-03T01:35:59;19.40;99.90
13229;DHT22;6680;53.220;10.402;2022-08-03T01:38:29;19.30;99.90
13229;DHT22;6680;53.220;10.402;2022-08-03T01:41:01;19.20;99.90
13229;DHT22;6680;53.220;10.402;2022-08-03T01:43:29;19.10;99.90
13229;DHT22;6680;53.220;10.402;2022-08-03T01:45:58;19.10;99.90
13229;DHT22;6680;53.220;10.402;2022-08-03T01:48:26;19.00;99.90
13229;DHT22;6680;53.220;10.402;2022-08-03T01:50:54;18.90;99.90
13229;DHT22;6680;53.220;10.402;2022-08-03T01:53:22;18.90;99.90
13229;DHT22;6680;53.220;10.402;2022-08-03T01:55:53;18.80;99.90
13229;DHT22;6680;53.220;10.402;2022-08-03T01:58:21;18.80;99.90
13229;DHT22;6680;53.220;10.402;2022-08-03T02:00:50;18.90;99.90
13229;DHT22;6680;53.220;10.402;2022-08-03T02:03:20;18.80;99.90
13229;DHT22;6680;53.220;10.402;2022-08-03T02:05:49;18.80;99.90
13229;DHT22;6680;53.220;10.402;2022-08-03T02:08:17;18.70;99.90
13229;DHT22;6680;53.220;10.402;2022-08-03T02:10:45;18.60;99.90
13229;DHT22;6680;53.220;10.402;2022-08-03T02:13:13;18.60;99.90
13229;DHT22;6680;53.220;10.402;2022-08-03T02:15:41;18.50;99.90
13229;DHT22;6680;53.220;10.402;2022-08-03T02:18:10;18.50;99.90
13229;DHT22;6680;53.220;10.402;2022-08-03T02:20:41;18.50;99.90
13229;DHT22;6680;53.220;10.402;2022-08-03T02:23:08;18.40;99.90
13229;DHT22;6680;53.220;10.402;2022-08-03T02:25:40;18.40;99.90
13229;DHT22;6680;53.220;10.402;2022-08-03T02:28:14;18.40;99.90
13229;DHT22;6680;53.220;10.402;2022-08-03T02:30:44;18.40;99.90
13229;DHT22;6680;53.220;10.402;2022-08-03T02:33:20;18.40;99.90
13229;DHT22;6680;53.220;10.402;2022-08-03T02:35:51;18.30;99.90
13229;DHT22;6680;53.220;10.402;2022-08-03T02:38:20;18.30;99.90
13229;DHT22;6680;53.220;10.402;2022-08-03T02:40:50;18.30;99.90
13229;DHT22;6680;53.220;10.402;2022-08-03T02:43:20;18.20;99.90
13229;DHT22;6680;53.220;10.402;2022-08-03T02:45:49;18.20;99.90
13229;DHT22;6680;53.220;10.402;2022-08-03T02:48:19;18.20;99.90
13229;DHT22;6680;53.220;10.402;2022-08-03T02:50:50;18.20;99.90
13229;DHT22;6680;53.220;10.402;2022-08-03T02:53:19;18.20;99.90
13229;DHT22;6680;53.220;10.402;2022-08-03T02:55:47;18.10;99.90
13229;DHT22;6680;53.220;10.402;2022-08-03T02:58:16;18.10;99.90
13229;DHT22;6680;53.220;10.402;2022-08-03T03:00:46;18.10;99.90
13229;DHT22;6680;53.220;10.402;2022-08-03T03:03:14;18.10;99.90
13229;DHT22;6680;53.220;10.402;2022-08-03T03:05:41;18.10;99.90
13229;DHT22;6680;53.220;10.402;2022-08-03T03:08:11;18.10;99.90
13229;DHT22;6680;53.220;10.402;2022-08-03T03:10:39;18.00;99.90
13229;DHT22;6680;53.220;10.402;2022-08-03T03:13:06;18.00;99.90
13229;DHT22;6680;53.220;10.402;2022-08-03T03:15:35;17.90;99.90
13229;DHT22;6680;53.220;10.402;2022-08-03T03:18:04;17.90;99.90
13229;DHT22;6680;53.220;10.402;2022-08-03T03:20:35;17.80;99.90
13229;DHT22;6680;53.220;10.402;2022-08-03T03:23:02;17.80;99.90
13229;DHT22;6680;53.220;10.402;2022-08-03T03:25:32;17.70;99.90
13229;DHT22;6680;53.220;10.402;2022-08-03T03:28:00;17.80;99.90
13229;DHT22;6680;53.220;10.402;2022-08-03T03:30:27;17.70;99.90
13229;DHT22;6680;53.220;10.402;2022-08-03T03:32:54;17.70;99.90
13229;DHT22;6680;53.220;10.402;2022-08-03T03:35:22;17.70;99.90
13229;DHT22;6680;53.220;10.402;2022-08-03T03:37:49;17.70;99.90
13229;DHT22;6680;53.220;10.402;2022-08-03T03:40:15;17.70;99.90
13229;DHT22;6680;53.220;10.402;2022-08-03T03:42:45;17.70;99.90
13229;DHT22;6680;53.220;10.402;2022-08-03T03:45:11;17.70;99.90
13229;DHT22;6680;53.220;10.402;2022-08-03T03:47:38;17.70;99.90
13229;DHT22;6680;53.220;10.402;2022-08-03T03:50:06;17.70;99.90
13229;DHT22;6680;53.220;10.402;2022-08-03T03:52:33;17.60;99.90
13229;DHT22;6680;53.220;10.402;2022-08-03T03:55:00;17.70;99.90
13229;DHT22;6680;53.220;10.402;2022-08-03T03:57:27;17.70;99.90
13229;DHT22;6680;53.220;10.402;2022-08-03T03:59:55;17.70;99.90
13229;DHT22;6680;53.220;10.402;2022-08-03T04:02:22;17.70;99.90
13229;DHT22;6680;53.220;10.402;2022-08-03T04:04:49;17.80;99.90
13229;DHT22;6680;53.220;10.402;2022-08-03T04:07:39;17.80;99.90
13229;DHT22;6680;53.220;10.402;2022-08-03T04:10:29;17.80;99.90
13229;DHT22;6680;53.220;10.402;2022-08-03T04:13:15;17.80;99.90
13229;DHT22;6680;53.220;10.402;2022-08-03T04:15:44;17.80;99.90
13229;DHT22;6680;53.220;10.402;2022-08-03T04:18:14;17.80;99.90
13229;DHT22;6680;53.220;10.402;2022-08-03T04:20:45;17.90;99.90
13229;DHT22;6680;53.220;10.402;2022-08-03T04:23:13;17.90;99.90
13229;DHT22;6680;53.220;10.402;2022-08-03T04:25:42;17.90;99.90
13229;DHT22;6680;53.220;10.402;2022-08-03T04:28:10;17.90;99.90
13229;DHT22;6680;53.220;10.402;2022-08-03T04:30:38;18.00;99.90
13229;DHT22;6680;53.220;10.402;2022-08-03T04:33:13;18.10;99.90
13229;DHT22;6680;53.220;10.402;2022-08-03T04:35:43;18.20;99.90
13229;DHT22;6680;53.220;10.402;2022-08-03T04:38:13;18.30;99.90
13229;DHT22;6680;53.220;10.402;2022-08-03T04:40:42;18.40;99.90
13229;DHT22;6680;53.220;10.402;2022-08-03T04:43:10;18.60;99.90
13229;DHT22;6680;53.220;10.402;2022-08-03T04:45:38;18.80;99.90
13229;DHT22;6680;53.220;10.402;2022-08-03T04:48:06;19.00;99.90
13229;DHT22;6680;53.220;10.402;2022-08-03T04:50:34;19.30;99.90
13229;DHT22;6680;53.220;10.402;2022-08-03T04:53:02;19.60;99.90
13229;DHT22;6680;53.220;10.402;2022-08-03T04:55:30;19.80;99.90
13229;DHT22;6680;53.220;10.402;2022-08-03T04:57:58;19.90;99.90
13229;DHT22;6680;53.220;10.402;2022-08-03T05:00:25;20.00;99.90
13229;DHT22;6680;53.220;10.402;2022-08-03T05:02:52;20.00;99.90
13229;DHT22;6680;53.220;10.402;2022-08-03T05:05:20;19.90;99.90
13229;DHT22;6680;53.220;10.402;2022-08-03T05:07:48;19.80;99.90
13229;DHT22;6680;53.220;10.402;2022-08-03T05:10:15;19.70;99.90
13229;DHT22;6680;53.220;10.402;2022-08-03T05:12:42;19.60;99.90
13229;DHT22;6680;53.220;10.402;2022-08-03T05:15:09;19.60;99.90
13229;DHT22;6680;53.220;10.402;2022-08-03T05:17:36;19.60;99.90
13229;DHT22;6680;53.220;10.402;2022-08-03T05:20:04;19.60;99.90
13229;DHT22;6680;53.220;10.402;2022-08-03T05:22:31;19.70;99.90
13229;DHT22;6680;53.220;10.402;2022-08-03T05:24:59;19.80;99.90
13229;DHT22;6680;53.220;10.402;2022-08-03T05:27:26;19.90;99.90
13229;DHT22;6680;53.220;10.402;2022-08-03T05:29:53;20.10;99.90
13229;DHT22;6680;53.220;10.402;2022-08-03T05:32:20;20.10;99.90
13229;DHT22;6680;53.220;10.402;2022-08-03T05:34:46;20.30;99.90
13229;DHT22;6680;53.220;10.402;2022-08-03T05:37:13;20.60;99.90
13229;DHT22;6680;53.220;10.402;2022-08-03T05:39:40;21.20;99.90
13229;DHT22;6680;53.220;10.402;2022-08-03T05:42:08;22.00;99.90
13229;DHT22;6680;53.220;10.402;2022-08-03T05:44:35;23.00;99.90
13229;DHT22;6680;53.220;10.402;2022-08-03T05:47:03;24.00;99.90
13229;DHT22;6680;53.220;10.402;2022-08-03T05:49:29;24.90;99.90
13229;DHT22;6680;53.220;10.402;2022-08-03T05:51:56;25.60;99.90
13229;DHT22;6680;53.220;10.402;2022-08-03T05:54:23;26.20;99.90
13229;DHT22;6680;53.220;10.402;2022-08-03T05:56:49;26.80;99.90
13229;DHT22;6680;53.220;10.402;2022-08-03T05:59:17;27.30;99.90
13229;DHT22;6680;53.220;10.402;2022-08-03T06:01:46;27.50;99.90
13229;DHT22;6680;53.220;10.402;2022-08-03T06:04:13;28.00;99.90
13229;DHT22;6680;53.220;10.402;2022-08-03T06:06:39;28.40;99.90
13229;DHT22;6680;53.220;10.402;2022-08-03T06:09:06;28.70;99.90
13229;DHT22;6680;53.220;10.402;2022-08-03T06:11:34;28.90;99.90
13229;DHT22;6680;53.220;10.402;2022-08-03T06:14:01;28.90;99.90
13229;DHT22;6680;53.220;10.402;2022-08-03T06:16:29;28.90;99.90
13229;DHT22;6680;53.220;10.402;2022-08-03T06:18:56;28.60;99.90
13229;DHT22;6680;53.220;10.402;2022-08-03T06:21:23;27.50;99.90
13229;DHT22;6680;53.220;10.402;2022-08-03T06:23:49;27.40;99.90
13229;DHT22;6680;53.220;10.402;2022-08-03T06:26:16;26.90;99.90
13229;DHT22;6680;53.220;10.402;2022-08-03T06:28:43;26.30;99.90
13229;DHT22;6680;53.220;10.402;2022-08-03T06:31:10;25.50;99.90
13229;DHT22;6680;53.220;10.402;2022-08-03T06:33:38;25.40;99.90
13229;DHT22;6680;53.220;10.402;2022-08-03T06:36:05;25.00;99.90
13229;DHT22;6680;53.220;10.402;2022-08-03T06:38:32;24.80;99.90
13229;DHT22;6680;53.220;10.402;2022-08-03T06:40:58;24.70;99.90
13229;DHT22;6680;53.220;10.402;2022-08-03T06:43:25;24.60;99.90
13229;DHT22;6680;53.220;10.402;2022-08-03T06:45:52;24.50;99.90
13229;DHT22;6680;53.220;10.402;2022-08-03T06:48:19;24.50;99.90
13229;DHT22;6680;53.220;10.402;2022-08-03T06:50:47;24.50;99.90
13229;DHT22;6680;53.220;10.402;2022-08-03T06:53:14;24.50;99.90
13229;DHT22;6680;53.220;10.402;2022-08-03T06:55:40;24.60;99.90
13229;DHT22;6680;53.220;10.402;2022-08-03T06:58:07;24.50;99.90
13229;DHT22;6680;53.220;10.402;2022-08-03T07:00:34;24.50;99.90
13229;DHT22;6680;53.220;10.402;2022-08-03T07:03:00;24.60;99.90
13229;DHT22;6680;53.220;10.402;2022-08-03T07:05:27;24.70;99.90
13229;DHT22;6680;53.220;10.402;2022-08-03T07:07:56;24.70;99.90
13229;DHT22;6680;53.220;10.402;2022-08-03T07:10:23;24.90;99.90
13229;DHT22;6680;53.220;10.402;2022-08-03T07:12:50;25.00;99.90
13229;DHT22;6680;53.220;10.402;2022-08-03T07:15:17;25.20;99.90
13229;DHT22;6680;53.220;10.402;2022-08-03T07:17:44;25.30;99.90
13229;DHT22;6680;53.220;10.402;2022-08-03T07:20:11;25.40;99.90
13229;DHT22;6680;53.220;10.402;2022-08-03T07:22:39;25.50;99.90
13229;DHT22;6680;53.220;10.402;2022-08-03T07:25:08;25.70;99.90
13229;DHT22;6680;53.220;10.402;2022-08-03T07:27:35;25.80;99.90
13229;DHT22;6680;53.220;10.402;2022-08-03T07:30:05;25.90;99.90
13229;DHT22;6680;53.220;10.402;2022-08-03T07:32:32;26.00;99.90
13229;DHT22;6680;53.220;10.402;2022-08-03T07:35:00;26.00;99.90
13229;DHT22;6680;53.220;10.402;2022-08-03T07:37:27;26.10;99.90
13229;DHT22;6680;53.220;10.402;2022-08-03T07:39:54;26.20;99.90
13229;DHT22;6680;53.220;10.402;2022-08-03T07:42:22;26.30;99.90
13229;DHT22;6680;53.220;10.402;2022-08-03T07:44:49;26.40;99.90
13229;DHT22;6680;53.220;10.402;2022-08-03T07:47:17;26.50;99.90
13229;DHT22;6680;53.220;10.402;2022-08-03T07:49:44;26.50;99.90
13229;DHT22;6680;53.220;10.402;2022-08-03T07:52:11;26.50;99.90
13229;DHT22;6680;53.220;10.402;2022-08-03T07:54:55;26.60;99.90
13229;DHT22;6680;53.220;10.402;2022-08-03T07:57:23;26.80;99.90
13229;DHT22;6680;53.220;10.402;2022-08-03T07:59:50;26.90;99.90
13229;DHT22;6680;53.220;10.402;2022-08-03T08:02:16;27.00;99.90
13229;DHT22;6680;53.220;10.402;2022-08-03T08:04:43;27.10;99.90
13229;DHT22;6680;53.220;10.402;2022-08-03T08:07:10;27.10;99.90
13229;DHT22;6680;53.220;10.402;2022-08-03T08:09:37;27.20;99.90
13229;DHT22;6680;53.220;10.402;2022-08-03T08:12:04;27.30;99.90
13229;DHT22;6680;53.220;10.402;2022-08-03T08:14:34;27.40;99.90
13229;DHT22;6680;53.220;10.402;2022-08-03T08:17:00;27.50;99.90
13229;DHT22;6680;53.220;10.402;2022-08-03T08:19:27;27.60;99.90
13229;DHT22;6680;53.220;10.402;2022-08-03T08:21:54;27.70;99.90
13229;DHT22;6680;53.220;10.402;2022-08-03T08:24:20;27.80;99.90
13229;DHT22;6680;53.220;10.402;2022-08-03T08:26:47;27.90;99.90
13229;DHT22;6680;53.220;10.402;2022-08-03T08:29:14;28.00;99.90
13229;DHT22;6680;53.220;10.402;2022-08-03T08:31:42;28.10;99.90
13229;DHT22;6680;53.220;10.402;2022-08-03T08:34:09;28.10;99.90
13229;DHT22;6680;53.220;10.402;2022-08-03T08:36:35;28.20;99.90
13229;DHT22;6680;53.220;10.402;2022-08-03T08:39:02;28.30;99.90
13229;DHT22;6680;53.220;10.402;2022-08-03T08:41:29;28.20;99.90
13229;DHT22;6680;53.220;10.402;2022-08-03T08:43:58;28.40;99.90
13229;DHT22;6680;53.220;10.402;2022-08-03T08:46:26;28.40;99.90
13229;DHT22;6680;53.220;10.402;2022-08-03T08:48:54;28.40;99.90
13229;DHT22;6680;53.220;10.402;2022-08-03T08:51:26;28.40;99.90
13229;DHT22;6680;53.220;10.402;2022-08-03T08:53:56;28.40;99.90
13229;DHT22;6680;53.220;10.402;2022-08-03T08:56:24;28.40;99.90
13229;DHT22;6680;53.220;10.402;2022-08-03T08:58:53;28.40;99.90
13229;DHT22;6680;53.220;10.402;2022-08-03T09:01:21;28.50;99.90
13229;DHT22;6680;53.220;10.402;2022-08-03T09:03:48;28.50;99.90
13229;DHT22;6680;53.220;10.402;2022-08-03T09:06:17;28.40;99.90
13229;DHT22;6680;53.220;10.402;2022-08-03T09:08:43;28.50;99.90
13229;DHT22;6680;53.220;10.402;2022-08-03T09:13:37;28.40;99.90
13229;DHT22;6680;53.220;10.402;2022-08-03T09:16:12;28.50;99.90
13229;DHT22;6680;53.220;10.402;2022-08-03T09:18:39;28.50;99.90
13229;DHT22;6680;53.220;10.402;2022-08-03T09:21:13;28.50;99.90
13229;DHT22;6680;53.220;10.402;2022-08-03T09:23:46;28.50;99.90
13229;DHT22;6680;53.220;10.402;2022-08-03T09:26:19;28.40;99.90
13229;DHT22;6680;53.220;10.402;2022-08-03T09:28:46;28.40;99.90
13229;DHT22;6680;53.220;10.402;2022-08-03T09:31:13;28.50;99.90
13229;DHT22;6680;53.220;10.402;2022-08-03T09:33:46;28.50;99.90
13229;DHT22;6680;53.220;10.402;2022-08-03T09:36:35;28.50;99.90
13229;DHT22;6680;53.220;10.402;2022-08-03T09:39:05;28.50;99.90
13229;DHT22;6680;53.220;10.402;2022-08-03T09:41:32;28.50;99.90
13229;DHT22;6680;53.220;10.402;2022-08-03T09:43:59;28.40;99.90
13229;DHT22;6680;53.220;10.402;2022-08-03T09:46:26;28.40;99.90
13229;DHT22;6680;53.220;10.402;2022-08-03T09:49:08;28.40;99.90
13229;DHT22;6680;53.220;10.402;2022-08-03T09:51:36;28.40;99.90
13229;DHT22;6680;53.220;10.402;2022-08-03T09:54:04;28.40;99.90
13229;DHT22;6680;53.220;10.402;2022-08-03T09:56:42;28.50;99.90
13229;DHT22;6680;53.220;10.402;2022-08-03T09:59:10;28.60;99.90
13229;DHT22;6680;53.220;10.402;2022-08-03T10:01:37;28.80;99.90
13229;DHT22;6680;53.220;10.402;2022-08-03T10:04:10;28.90;99.90
13229;DHT22;6680;53.220;10.402;2022-08-03T10:06:38;29.00;99.90
13229;DHT22;6680;53.220;10.402;2022-08-03T10:09:07;29.00;99.90
13229;DHT22;6680;53.220;10.402;2022-08-03T10:11:35;28.90;99.90
13229;DHT22;6680;53.220;10.402;2022-08-03T10:14:03;28.90;99.90
13229;DHT22;6680;53.220;10.402;2022-08-03T10:16:33;28.90;99.90
13229;DHT22;6680;53.220;10.402;2022-08-03T10:19:00;28.90;99.90
13229;DHT22;6680;53.220;10.402;2022-08-03T10:21:30;28.90;99.90
13229;DHT22;6680;53.220;10.402;2022-08-03T10:23:59;29.00;99.90
13229;DHT22;6680;53.220;10.402;2022-08-03T10:26:30;29.10;99.90
13229;DHT22;6680;53.220;10.402;2022-08-03T10:28:59;29.20;99.90
13229;DHT22;6680;53.220;10.402;2022-08-03T10:31:34;29.70;99.90
13229;DHT22;6680;53.220;10.402;2022-08-03T10:34:01;29.50;99.90
13229;DHT22;6680;53.220;10.402;2022-08-03T10:36:32;29.70;99.90
13229;DHT22;6680;53.220;10.402;2022-08-03T10:39:02;29.80;99.90
13229;DHT22;6680;53.220;10.402;2022-08-03T10:41:35;30.00;99.90
13229;DHT22;6680;53.220;10.402;2022-08-03T10:44:05;29.90;99.90
13229;DHT22;6680;53.220;10.402;2022-08-03T10:46:33;30.00;99.90
13229;DHT22;6680;53.220;10.402;2022-08-03T10:49:00;30.00;99.90
13229;DHT22;6680;53.220;10.402;2022-08-03T10:51:28;30.20;99.90
13229;DHT22;6680;53.220;10.402;2022-08-03T10:53:56;30.10;99.90
13229;DHT22;6680;53.220;10.402;2022-08-03T10:56:40;30.20;99.90
13229;DHT22;6680;53.220;10.402;2022-08-03T10:59:56;30.20;99.90
13229;DHT22;6680;53.220;10.402;2022-08-03T11:03:03;30.10;99.90
13229;DHT22;6680;53.220;10.402;2022-08-03T11:05:32;30.00;99.90
13229;DHT22;6680;53.220;10.402;2022-08-03T11:08:24;30.00;99.90
13229;DHT22;6680;53.220;10.402;2022-08-03T11:10:54;30.00;99.90
13229;DHT22;6680;53.220;10.402;2022-08-03T11:13:24;30.00;99.90
13229;DHT22;6680;53.220;10.402;2022-08-03T11:15:54;30.10;99.90
13229;DHT22;6680;53.220;10.402;2022-08-03T11:18:21;30.20;99.90
13229;DHT22;6680;53.220;10.402;2022-08-03T11:20:51;30.30;99.90
13229;DHT22;6680;53.220;10.402;2022-08-03T11:23:20;30.30;99.90
13229;DHT22;6680;53.220;10.402;2022-08-03T11:26:13;30.40;99.90
13229;DHT22;6680;53.220;10.402;2022-08-03T11:28:42;30.40;99.90
13229;DHT22;6680;53.220;10.402;2022-08-03T11:31:44;30.30;99.90
13229;DHT22;6680;53.220;10.402;2022-08-03T11:34:15;30.40;99.90
13229;DHT22;6680;53.220;10.402;2022-08-03T11:37:20;30.40;99.90
13229;DHT22;6680;53.220;10.402;2022-08-03T11:39:52;30.50;99.90
13229;DHT22;6680;53.220;10.402;2022-08-03T11:42:41;30.70;99.90
13229;DHT22;6680;53.220;10.402;2022-08-03T11:45:13;30.70;99.90
13229;DHT22;6680;53.220;10.402;2022-08-03T11:47:41;30.70;99.90
13229;DHT22;6680;53.220;10.402;2022-08-03T11:50:09;30.80;99.90
13229;DHT22;6680;53.220;10.402;2022-08-03T11:52:38;30.80;99.90
13229;DHT22;6680;53.220;10.402;2022-08-03T11:55:13;30.80;99.90
13229;DHT22;6680;53.220;10.402;2022-08-03T11:57:40;30.80;99.90
13229;DHT22;6680;53.220;10.402;2022-08-03T12:00:26;30.90;99.90
13229;DHT22;6680;53.220;10.402;2022-08-03T12:03:11;30.80;99.90
13229;DHT22;6680;53.220;10.402;2022-08-03T12:05:44;30.90;99.90
13229;DHT22;6680;53.220;10.402;2022-08-03T12:08:12;30.90;99.90
13229;DHT22;6680;53.220;10.402;2022-08-03T12:10:44;30.90;99.90
13229;DHT22;6680;53.220;10.402;2022-08-03T12:13:11;30.90;99.90
13229;DHT22;6680;53.220;10.402;2022-08-03T12:15:39;30.90;99.90
13229;DHT22;6680;53.220;10.402;2022-08-03T12:18:14;30.80;99.90
13229;DHT22;6680;53.220;10.402;2022-08-03T12:20:42;30.80;99.90
13229;DHT22;6680;53.220;10.402;2022-08-03T12:23:09;30.90;99.90
13229;DHT22;6680;53.220;10.402;2022-08-03T12:25:37;30.90;99.90
13229;DHT22;6680;53.220;10.402;2022-08-03T12:28:13;31.00;99.90
13229;DHT22;6680;53.220;10.402;2022-08-03T12:30:46;31.00;99.90
13229;DHT22;6680;53.220;10.402;2022-08-03T12:33:23;31.00;99.90
13229;DHT22;6680;53.220;10.402;2022-08-03T12:36:02;31.10;99.90
13229;DHT22;6680;53.220;10.402;2022-08-03T12:38:30;31.10;99.90
13229;DHT22;6680;53.220;10.402;2022-08-03T12:41:03;31.20;99.90
13229;DHT22;6680;53.220;10.402;2022-08-03T12:43:30;31.20;99.90
13229;DHT22;6680;53.220;10.402;2022-08-03T12:46:12;31.30;99.90
13229;DHT22;6680;53.220;10.402;2022-08-03T12:49:07;31.30;99.90
13229;DHT22;6680;53.220;10.402;2022-08-03T12:51:35;31.40;99.90
13229;DHT22;6680;53.220;10.402;2022-08-03T12:54:03;31.50;99.90
13229;DHT22;6680;53.220;10.402;2022-08-03T12:56:30;31.60;99.90
13229;DHT22;6680;53.220;10.402;2022-08-03T12:58:57;31.70;99.90
13229;DHT22;6680;53.220;10.402;2022-08-03T13:01:25;31.80;99.70
13229;DHT22;6680;53.220;10.402;2022-08-03T13:03:54;31.70;99.60
13229;DHT22;6680;53.220;10.402;2022-08-03T13:06:22;31.60;99.60
13229;DHT22;6680;53.220;10.402;2022-08-03T13:09:00;31.60;99.90
13229;DHT22;6680;53.220;10.402;2022-08-03T13:11:27;31.50;99.80
13229;DHT22;6680;53.220;10.402;2022-08-03T13:13:54;31.60;99.90
13229;DHT22;6680;53.220;10.402;2022-08-03T13:16:21;31.60;99.90
13229;DHT22;6680;53.220;10.402;2022-08-03T13:18:51;31.70;99.50
13229;DHT22;6680;53.220;10.402;2022-08-03T13:21:19;31.70;99.80
13229;DHT22;6680;53.220;10.402;2022-08-03T13:23:46;31.80;99.80
13229;DHT22;6680;53.220;10.402;2022-08-03T13:26:13;31.80;99.90
13229;DHT22;6680;53.220;10.402;2022-08-03T13:28:39;31.90;99.90
13229;DHT22;6680;53.220;10.402;2022-08-03T13:31:06;32.00;99.90
13229;DHT22;6680;53.220;10.402;2022-08-03T13:33:33;32.00;99.80
13229;DHT22;6680;53.220;10.402;2022-08-03T13:36:01;32.00;99.40
13229;DHT22;6680;53.220;10.402;2022-08-03T13:38:28;32.00;99.50
13229;DHT22;6680;53.220;10.402;2022-08-03T13:40:55;32.00;99.20
13229;DHT22;6680;53.220;10.402;2022-08-03T13:43:21;32.10;99.30
13229;DHT22;6680;53.220;10.402;2022-08-03T13:45:48;32.10;99.30
13229;DHT22;6680;53.220;10.402;2022-08-03T13:48:15;32.10;99.50
13229;DHT22;6680;53.220;10.402;2022-08-03T13:50:41;32.10;99.10
13229;DHT22;6680;53.220;10.402;2022-08-03T13:53:09;32.10;98.70
13229;DHT22;6680;53.220;10.402;2022-08-03T13:55:36;32.10;99.10
13229;DHT22;6680;53.220;10.402;2022-08-03T13:58:03;32.10;99.40
13229;DHT22;6680;53.220;10.402;2022-08-03T14:00:32;32.10;99.00
13229;DHT22;6680;53.220;10.402;2022-08-03T14:03:00;32.20;98.80
13229;DHT22;6680;53.220;10.402;2022-08-03T14:05:27;32.10;99.80
13229;DHT22;6680;53.220;10.402;2022-08-03T14:07:55;32.10;99.60
13229;DHT22;6680;53.220;10.402;2022-08-03T14:10:23;32.00;99.00
13229;DHT22;6680;53.220;10.402;2022-08-03T14:12:49;32.10;99.50
13229;DHT22;6680;53.220;10.402;2022-08-03T14:15:16;32.10;99.60
13229;DHT22;6680;53.220;10.402;2022-08-03T14:17:43;32.20;99.70
13229;DHT22;6680;53.220;10.402;2022-08-03T14:20:09;32.20;98.60
13229;DHT22;6680;53.220;10.402;2022-08-03T14:22:38;32.30;98.00
13229;DHT22;6680;53.220;10.402;2022-08-03T14:25:06;32.20;97.60
13229;DHT22;6680;53.220;10.402;2022-08-03T14:27:35;32.10;97.70
13229;DHT22;6680;53.220;10.402;2022-08-03T14:30:02;32.10;98.00
13229;DHT22;6680;53.220;10.402;2022-08-03T14:32:29;32.10;98.10
13229;DHT22;6680;53.220;10.402;2022-08-03T14:34:55;32.10;98.60
13229;DHT22;6680;53.220;10.402;2022-08-03T14:37:22;32.10;98.60
13229;DHT22;6680;53.220;10.402;2022-08-03T14:39:49;32.10;97.90
13229;DHT22;6680;53.220;10.402;2022-08-03T14:42:15;32.10;98.30
13229;DHT22;6680;53.220;10.402;2022-08-03T14:44:43;32.10;98.50
13229;DHT22;6680;53.220;10.402;2022-08-03T14:47:10;32.00;98.50
13229;DHT22;6680;53.220;10.402;2022-08-03T14:49:37;32.10;99.20
13229;DHT22;6680;53.220;10.402;2022-08-03T14:52:04;32.10;98.40
13229;DHT22;6680;53.220;10.402;2022-08-03T14:54:31;32.10;98.90
13229;DHT22;6680;53.220;10.402;2022-08-03T14:56:57;32.20;98.60
13229;DHT22;6680;53.220;10.402;2022-08-03T14:59:24;32.30;99.00
13229;DHT22;6680;53.220;10.402;2022-08-03T15:01:53;32.30;98.10
13229;DHT22;6680;53.220;10.402;2022-08-03T15:04:20;32.40;97.90
13229;DHT22;6680;53.220;10.402;2022-08-03T15:06:47;32.40;97.80
13229;DHT22;6680;53.220;10.402;2022-08-03T15:09:13;32.40;97.70
13229;DHT22;6680;53.220;10.402;2022-08-03T15:11:41;32.40;97.50
13229;DHT22;6680;53.220;10.402;2022-08-03T15:14:08;32.40;97.60
13229;DHT22;6680;53.220;10.402;2022-08-03T15:16:35;32.40;97.00
13229;DHT22;6680;53.220;10.402;2022-08-03T15:19:03;32.40;97.80
13229;DHT22;6680;53.220;10.402;2022-08-03T15:21:30;32.40;98.00
13229;DHT22;6680;53.220;10.402;2022-08-03T15:23:57;32.30;97.90
13229;DHT22;6680;53.220;10.402;2022-08-03T15:26:23;32.20;97.90
13229;DHT22;6680;53.220;10.402;2022-08-03T15:28:50;32.20;97.90
13229;DHT22;6680;53.220;10.402;2022-08-03T15:31:20;31.90;98.00
13229;DHT22;6680;53.220;10.402;2022-08-03T15:33:47;31.90;98.10
13229;DHT22;6680;53.220;10.402;2022-08-03T15:36:16;31.90;98.40
13229;DHT22;6680;53.220;10.402;2022-08-03T15:38:43;31.80;97.80
13229;DHT22;6680;53.220;10.402;2022-08-03T15:41:10;31.80;98.70
13229;DHT22;6680;53.220;10.402;2022-08-03T15:43:36;31.80;98.80
13229;DHT22;6680;53.220;10.402;2022-08-03T15:46:03;31.80;98.10